Time;durP1;ratioP1;P1;durP2;ratioP2;P2;SDS_P1;SDS_P2;PMS_P1;PMS_P2;Temp;Humidity;BMP_temperature;BMP_pressure;BME280_temperature;BME280_humidity;BME280_pressure;Samples;Min_cycle;Max_cycle;Signal;HPM_P1;HPM_P2
2021/03/24 00:00:33;;;;;;;48.57;35.90;;;9.10;77.80;;;;;;5139943;27;20768;-67
2021/03/24 00:03:18;;;;;;;43.27;32.13;;;9.20;77.70;;;;;;5140042;27;20422;-67
2021/03/24 00:06:04;;;;;;;48.10;35.70;;;9.20;77.60;;;;;;5139578;27;20640;-67
2021/03/24 00:08:50;;;;;;;42.90;34.03;;;9.20;77.50;;;;;;5140007;27;20281;-67
2021/03/24 00:11:36;;;;;;;45.90;34.90;;;9.20;77.30;;;;;;5139705;27;20360;-67
2021/03/24 00:14:22;;;;;;;48.00;34.80;;;9.10;77.20;;;;;;5139744;27;20304;-67
2021/03/24 00:17:07;;;;;;;45.23;34.17;;;9.10;77.10;;;;;;5140123;27;20287;-67
2021/03/24 00:19:53;;;;;;;45.73;34.13;;;9.10;77.20;;;;;;5139120;27;20367;-67
2021/03/24 00:22:39;;;;;;;45.37;33.37;;;9.10;77.10;;;;;;5139683;27;20458;-67
2021/03/24 00:25:24;;;;;;;47.30;35.20;;;9.10;77.00;;;;;;5138959;27;20277;-67
2021/03/24 00:28:11;;;;;;;44.67;33.50;;;9.00;77.00;;;;;;5139726;27;20272;-67
2021/03/24 00:30:57;;;;;;;39.77;31.00;;;9.10;77.00;;;;;;5139361;27;20285;-67
2021/03/24 00:33:43;;;;;;;50.13;36.70;;;9.10;76.90;;;;;;5138820;27;20277;-67
2021/03/24 00:36:28;;;;;;;49.80;35.93;;;9.00;77.00;;;;;;5139942;27;20299;-67
2021/03/24 00:39:17;;;;;;;48.67;37.23;;;9.10;76.90;;;;;;5138638;27;20283;-67
2021/03/24 00:42:03;;;;;;;50.63;36.53;;;9.10;77.00;;;;;;5138984;27;20303;-67
2021/03/24 00:44:48;;;;;;;45.93;34.37;;;9.10;77.00;;;;;;5138878;27;20304;-67
2021/03/24 00:47:34;;;;;;;51.60;36.07;;;9.10;76.90;;;;;;5138802;27;20312;-67
2021/03/24 00:50:24;;;;;;;52.77;36.53;;;9.20;76.90;;;;;;5139357;27;20353;-67
2021/03/24 00:53:10;;;;;;;46.00;35.50;;;9.20;76.80;;;;;;5138444;27;20288;-67
2021/03/24 00:55:56;;;;;;;39.47;30.80;;;9.10;76.80;;;;;;5139024;27;20292;-67
2021/03/24 00:58:41;;;;;;;50.80;38.03;;;9.10;76.80;;;;;;5139561;27;20279;-67
2021/03/24 01:01:27;;;;;;;50.30;36.47;;;9.10;76.70;;;;;;5138516;27;20660;-67
2021/03/24 01:04:12;;;;;;;47.07;35.73;;;9.10;76.70;;;;;;5138491;27;20310;-68
2021/03/24 01:06:59;;;;;;;52.57;37.00;;;9.10;76.70;;;;;;5138319;27;20282;-68
2021/03/24 01:09:44;;;;;;;47.63;35.40;;;9.10;76.60;;;;;;5138821;27;20280;-67
2021/03/24 01:12:30;;;;;;;42.57;30.83;;;9.20;76.70;;;;;;5139069;27;20288;-67
2021/03/24 01:15:16;;;;;;;55.20;38.70;;;9.10;76.80;;;;;;5137899;27;20284;-67
2021/03/24 01:18:02;;;;;;;50.27;36.80;;;9.20;76.60;;;;;;5138357;27;20315;-67
2021/03/24 01:20:48;;;;;;;49.13;36.60;;;9.10;76.60;;;;;;5138607;27;20317;-67
2021/03/24 01:23:34;;;;;;;55.83;38.60;;;9.20;76.60;;;;;;5139031;27;20342;-67
2021/03/24 01:26:20;;;;;;;57.17;39.23;;;9.10;76.60;;;;;;5138431;27;20276;-67
2021/03/24 01:29:06;;;;;;;51.47;37.37;;;9.10;76.50;;;;;;5137716;27;20345;-67
2021/03/24 01:31:51;;;;;;;50.27;37.23;;;9.10;76.50;;;;;;5138328;27;20284;-67
2021/03/24 01:34:37;;;;;;;50.30;37.57;;;9.10;76.50;;;;;;5138823;27;20326;-67
2021/03/24 01:37:22;;;;;;;50.27;38.27;;;9.00;76.30;;;;;;5137953;27;20790;-67
2021/03/24 01:40:12;;;;;;;55.07;39.37;;;9.00;76.40;;;;;;5138272;27;20350;-67
2021/03/24 01:43:01;;;;;;;57.70;40.40;;;8.90;76.40;;;;;;5137275;27;20284;-67
2021/03/24 01:46:18;;;;;;;52.33;35.77;;;8.90;76.50;;;;;;5138213;27;20280;-67
2021/03/24 01:49:22;;;;;;;50.20;36.47;;;8.80;76.70;;;;;;5136985;27;20745;-67
2021/03/24 01:52:09;;;;;;;59.27;40.17;;;8.70;76.80;;;;;;5138114;27;20303;-67
2021/03/24 01:54:55;;;;;;;49.83;36.90;;;8.60;77.10;;;;;;5138069;27;20322;-67
2021/03/24 01:57:46;;;;;;;50.13;36.90;;;8.60;77.20;;;;;;5137351;27;20276;-67
2021/03/24 02:00:37;;;;;;;59.17;39.80;;;8.50;77.30;;;;;;5138186;27;20288;-67
2021/03/24 02:03:27;;;;;;;49.00;34.17;;;8.40;77.80;;;;;;5137103;27;20351;-67
2021/03/24 02:06:53;;;;;;;55.83;39.50;;;8.30;77.90;;;;;;5137742;27;20280;-67
2021/03/24 02:09:49;;;;;;;58.23;40.73;;;8.20;78.30;;;;;;5138000;27;20375;-67
2021/03/24 02:12:50;;;;;;;54.47;39.23;;;8.20;78.40;;;;;;5138206;27;20296;-67
2021/03/24 02:15:40;;;;;;;55.27;39.40;;;8.10;78.50;;;;;;5138277;27;20287;-67
2021/03/24 02:18:29;;;;;;;60.00;42.37;;;8.10;79.80;;;;;;5136988;27;20280;-67
2021/03/24 02:21:29;;;;;;;59.53;41.03;;;8.00;78.90;;;;;;5137581;27;20632;-67
2021/03/24 02:24:48;;;;;;;60.03;40.87;;;7.90;79.30;;;;;;5136964;27;20332;-67
2021/03/24 02:27:40;;;;;;;59.13;41.37;;;7.70;79.60;;;;;;5138002;27;20286;-67
2021/03/24 02:30:32;;;;;;;50.13;37.70;;;7.70;79.80;;;;;;5137978;27;20277;-67
2021/03/24 02:33:22;;;;;;;60.30;41.53;;;7.60;79.80;;;;;;5137012;27;20046;-67
2021/03/24 02:36:14;;;;;;;57.67;40.30;;;7.60;80.00;;;;;;5137031;27;20103;-67
2021/03/24 02:39:03;;;;;;;54.90;39.42;;;7.50;80.10;;;;;;5136845;27;20279;-67
2021/03/24 02:41:51;;;;;;;61.13;42.33;;;7.40;80.50;;;;;;5137864;27;20099;-67
2021/03/24 02:44:38;;;;;;;58.13;40.37;;;7.40;80.60;;;;;;5137642;27;20356;-67
2021/03/24 02:47:25;;;;;;;57.07;41.33;;;7.30;80.80;;;;;;5136962;27;20276;-67
2021/03/24 02:50:12;;;;;;;56.73;39.67;;;7.30;80.90;;;;;;5137625;27;20281;-67
2021/03/24 02:53:00;;;;;;;60.63;40.10;;;7.20;80.90;;;;;;5136763;27;20350;-67
2021/03/24 02:55:46;;;;;;;61.33;42.30;;;7.20;81.20;;;;;;5137616;27;20361;-67
2021/03/24 02:58:32;;;;;;;58.17;40.57;;;7.20;81.20;;;;;;5137762;27;20713;-67
2021/03/24 03:01:22;;;;;;;62.80;41.43;;;7.20;81.30;;;;;;5136371;27;20918;-67
2021/03/24 03:04:14;;;;;;;58.33;42.30;;;7.20;81.40;;;;;;5141135;27;20304;-67
2021/03/24 03:07:24;;;;;;;55.17;37.80;;;7.10;81.50;;;;;;5140158;27;20764;-67
2021/03/24 03:10:24;;;;;;;62.37;42.60;;;7.00;81.70;;;;;;5141303;27;20284;-67
2021/03/24 03:13:17;;;;;;;63.43;42.10;;;6.90;82.00;;;;;;5141225;27;20302;-67
2021/03/24 03:16:28;;;;;;;63.40;41.67;;;6.80;82.10;;;;;;5140772;27;20368;-67
2021/03/24 03:19:45;;;;;;;60.43;41.77;;;6.80;82.40;;;;;;5141316;27;20284;-67
2021/03/24 03:22:35;;;;;;;66.70;43.03;;;6.70;82.50;;;;;;5140161;27;20808;-67
2021/03/24 03:25:25;;;;;;;69.37;44.50;;;6.70;82.60;;;;;;5140250;27;20772;-67
2021/03/24 03:28:16;;;;;;;62.83;41.20;;;6.70;82.60;;;;;;5140166;27;20321;-67
2021/03/24 03:31:04;;;;;;;63.30;43.83;;;6.70;82.90;;;;;;5140561;27;20340;-67
2021/03/24 03:33:52;;;;;;;67.63;43.67;;;6.60;82.70;;;;;;5140949;27;20337;-67
2021/03/24 03:36:41;;;;;;;63.53;43.53;;;6.60;83.70;;;;;;5140136;27;20345;-66
2021/03/24 03:39:29;;;;;;;63.23;45.10;;;6.60;83.00;;;;;;5140657;27;20276;-67
2021/03/24 03:42:15;;;;;;;64.27;43.13;;;6.50;83.20;;;;;;5139947;27;20333;-67
2021/03/24 03:45:01;;;;;;;66.70;45.17;;;6.50;83.30;;;;;;5140126;27;20304;-67
2021/03/24 03:47:47;;;;;;;64.07;41.33;;;6.50;83.40;;;;;;5140320;27;20288;-67
2021/03/24 03:50:33;;;;;;;62.90;43.30;;;6.50;83.40;;;;;;5139986;27;20368;-67
2021/03/24 03:53:50;;;;;;;61.27;41.00;;;6.40;83.50;;;;;;5140463;27;20371;-67
2021/03/24 03:56:45;;;;;;;68.70;43.60;;;6.40;83.90;;;;;;5139997;27;20288;-67
2021/03/24 03:59:50;;;;;;;66.93;44.97;;;6.40;84.00;;;;;;5140562;27;20284;-67
2021/03/24 04:03:02;;;;;;;64.80;42.50;;;6.40;83.90;;;;;;5140711;27;20610;-67
2021/03/24 04:05:52;;;;;;;66.80;42.65;;;6.30;84.00;;;;;;5139671;27;20288;-67
2021/03/24 04:08:38;;;;;;;68.53;42.73;;;6.30;84.00;;;;;;5140513;27;20049;-67
2021/03/24 04:11:27;;;;;;;71.57;46.77;;;6.30;84.00;;;;;;5139368;27;20295;-67
2021/03/24 04:14:25;;;;;;;62.80;42.10;;;6.20;84.10;;;;;;5139447;27;20287;-67
2021/03/24 04:17:14;;;;;;;68.80;44.37;;;6.20;84.30;;;;;;5139087;27;20322;-67
2021/03/24 04:20:02;;;;;;;69.77;44.67;;;6.10;84.50;;;;;;5139867;27;20367;-67
2021/03/24 04:22:50;;;;;;;69.30;44.10;;;6.00;84.70;;;;;;5139776;27;20283;-66
2021/03/24 04:25:41;;;;;;;67.23;46.17;;;6.00;84.90;;;;;;5139344;27;20272;-66
2021/03/24 04:28:31;;;;;;;72.30;45.15;;;6.00;85.00;;;;;;5139906;27;20291;-66
2021/03/24 04:31:20;;;;;;;63.77;43.23;;;5.90;85.00;;;;;;5138939;27;20043;-66
2021/03/24 04:34:06;;;;;;;68.53;45.40;;;5.90;85.20;;;;;;5139693;27;20284;-66
2021/03/24 04:37:28;;;;;;;69.70;45.83;;;5.90;85.20;;;;;;5139332;27;20288;-66
2021/03/24 04:40:25;;;;;;;66.68;44.78;;;5.90;85.40;;;;;;5139443;27;20276;-66
2021/03/24 04:43:21;;;;;;;69.27;46.37;;;5.90;85.40;;;;;;5139191;27;20108;-66
2021/03/24 04:46:32;;;;;;;72.00;43.87;;;5.90;85.30;;;;;;5138471;27;20280;-66
2021/03/24 04:49:22;;;;;;;62.80;42.43;;;5.80;85.30;;;;;;5139031;27;20272;-66
2021/03/24 04:52:09;;;;;;;66.30;45.90;;;5.90;85.70;;;;;;5138665;27;20356;-66
2021/03/24 04:55:02;;;;;;;73.37;46.83;;;5.90;85.50;;;;;;5139048;27;20276;-66
2021/03/24 04:57:48;;;;;;;64.93;46.13;;;5.80;85.30;;;;;;5139018;27;20324;-66
2021/03/24 05:00:50;;;;;;;72.20;46.43;;;5.80;85.60;;;;;;5138699;27;20123;-66
2021/03/24 05:03:41;;;;;;;74.30;47.90;;;5.80;85.80;;;;;;5138893;27;20799;-66
2021/03/24 05:06:32;;;;;;;78.57;48.30;;;5.80;85.80;;;;;;5137917;27;20391;-66
2021/03/24 05:09:18;;;;;;;77.45;46.83;;;5.80;86.00;;;;;;5138954;27;20772;-66
2021/03/24 05:12:18;;;;;;;75.00;47.80;;;5.80;85.90;;;;;;5138796;27;20217;-66
2021/03/24 05:15:21;;;;;;;72.13;47.27;;;5.80;85.90;;;;;;5138056;27;20287;-67
2021/03/24 05:18:10;;;;;;;73.03;46.37;;;5.80;86.10;;;;;;5138586;27;20376;-66
2021/03/24 05:21:22;;;;;;;76.97;49.33;;;5.70;86.00;;;;;;5137896;27;20272;-66
2021/03/24 05:24:10;;;;;;;79.60;49.53;;;5.80;86.40;;;;;;5137686;27;20335;-66
2021/03/24 05:27:17;;;;;;;77.27;48.73;;;5.70;86.00;;;;;;5138247;27;20054;-66
2021/03/24 05:30:22;;;;;;;77.50;48.93;;;5.70;86.20;;;;;;5137914;27;20288;-66
2021/03/24 05:33:21;;;;;;;78.73;50.20;;;5.70;86.40;;;;;;5138281;27;20313;-66
2021/03/24 05:36:25;;;;;;;74.73;46.70;;;5.70;86.30;;;;;;5137379;27;20293;-66
2021/03/24 05:39:13;;;;;;;75.93;49.53;;;5.70;86.50;;;;;;5138203;27;20281;-66
2021/03/24 05:42:38;;;;;;;78.73;50.10;;;5.60;86.50;;;;;;5137444;27;20296;-66
2021/03/24 05:45:38;;;;;;;81.07;50.37;;;5.70;86.60;;;;;;5137745;27;20311;-66
2021/03/24 05:48:52;;;;;;;74.93;49.27;;;5.70;86.50;;;;;;5138140;27;20285;-66
2021/03/24 05:52:07;;;;;;;80.47;51.40;;;5.70;86.50;;;;;;5138493;27;20288;-66
2021/03/24 05:55:20;;;;;;;82.33;51.40;;;5.70;86.70;;;;;;5137812;27;20325;-66
2021/03/24 05:58:40;;;;;;;89.97;54.23;;;5.70;86.70;;;;;;5137948;27;20371;-66
2021/03/24 06:01:44;;;;;;;87.30;52.27;;;5.70;86.70;;;;;;5137586;27;20284;-66
2021/03/24 06:04:42;;;;;;;87.87;53.40;;;5.70;87.00;;;;;;5136949;27;20683;-66
2021/03/24 06:08:03;;;;;;;79.17;49.83;;;5.80;86.90;;;;;;5137837;27;20288;-66
2021/03/24 06:11:18;;;;;;;90.23;54.10;;;5.80;86.90;;;;;;5136890;27;20317;-66
2021/03/24 06:14:34;;;;;;;80.67;52.10;;;5.90;87.00;;;;;;5137408;27;20276;-66
2021/03/24 06:17:46;;;;;;;92.53;54.27;;;5.90;87.00;;;;;;5136578;27;21055;-66
2021/03/24 06:20:41;;;;;;;94.03;56.50;;;6.00;86.90;;;;;;5137789;27;20268;-66
2021/03/24 06:24:01;;;;;;;89.80;55.23;;;6.00;86.80;;;;;;5137148;27;20395;-66
2021/03/24 06:27:22;;;;;;;91.73;55.60;;;6.00;86.80;;;;;;5137507;27;20276;-66
2021/03/24 06:30:29;;;;;;;86.60;54.17;;;6.10;87.00;;;;;;5136964;27;20281;-66
2021/03/24 06:33:38;;;;;;;88.43;55.33;;;6.20;86.90;;;;;;5134871;27;20770;-66
2021/03/24 06:36:56;;;;;;;74.83;49.70;;;6.20;86.80;;;;;;5138387;27;20273;-66
2021/03/24 06:39:59;;;;;;;85.67;54.53;;;6.30;86.90;;;;;;5139613;27;20260;-67
2021/03/24 06:43:15;;;;;;;88.00;55.93;;;6.40;86.60;;;;;;5140842;27;20306;-67
2021/03/24 06:46:04;;;;;;;85.23;54.37;;;6.50;86.40;;;;;;5139256;27;20663;-66
2021/03/24 06:49:10;;;;;;;89.63;57.73;;;6.50;86.40;;;;;;5138495;27;20271;-67
2021/03/24 06:52:21;;;;;;;89.37;56.90;;;6.60;86.30;;;;;;5138726;27;20296;-66
2021/03/24 06:55:39;;;;;;;88.20;54.43;;;6.60;86.30;;;;;;5138200;27;20300;-67
2021/03/24 06:58:57;;;;;;;93.27;58.23;;;6.60;86.30;;;;;;5139926;27;20268;-67
2021/03/24 07:02:10;;;;;;;89.93;58.37;;;6.80;86.50;;;;;;5140152;27;20272;-67
2021/03/24 07:05:19;;;;;;;87.40;56.13;;;7.20;85.90;;;;;;5138136;27;20776;-64
2021/03/24 07:08:30;;;;;;;86.40;55.03;;;7.40;85.30;;;;;;5139984;27;20107;-65
2021/03/24 07:11:40;;;;;;;88.63;57.03;;;7.40;84.80;;;;;;5138319;27;20269;-66
2021/03/24 07:14:47;;;;;;;94.90;61.77;;;7.50;84.70;;;;;;5139075;27;20355;-65
2021/03/24 07:18:00;;;;;;;91.93;59.50;;;7.60;84.40;;;;;;5140359;27;20280;-67
2021/03/24 07:21:17;;;;;;;88.30;58.25;;;7.80;84.20;;;;;;5138945;27;20268;-67
2021/03/24 07:24:21;;;;;;;94.97;63.37;;;8.10;83.20;;;;;;5108587;27;20050;-67
2021/03/24 07:27:39;;;;;;;86.80;58.70;;;8.20;82.90;;;;;;5137268;27;20279;-67
2021/03/24 07:30:37;;;;;;;81.80;55.60;;;8.10;82.70;;;;;;5137392;27;20828;-67
2021/03/24 07:33:49;;;;;;;82.73;57.47;;;8.20;82.80;;;;;;5136963;27;20359;-67
2021/03/24 07:36:37;;;;;;;94.70;63.50;;;8.30;82.50;;;;;;5139171;27;20371;-67
2021/03/24 07:39:42;;;;;;;84.70;57.17;;;8.30;82.80;;;;;;5136961;27;20134;-66
2021/03/24 07:42:47;;;;;;;92.37;62.07;;;8.40;82.80;;;;;;5137376;27;20304;-66
2021/03/24 07:45:55;;;;;;;94.13;60.73;;;8.50;82.20;;;;;;5138239;27;20299;-66
2021/03/24 07:48:50;;;;;;;79.17;54.13;;;8.60;82.10;;;;;;5137272;27;20673;-66
2021/03/24 07:51:50;;;;;;;82.77;56.30;;;8.70;81.90;;;;;;5140005;27;20279;-66
2021/03/24 07:54:47;;;;;;;87.00;59.60;;;8.90;81.80;;;;;;5140442;27;20363;-66
2021/03/24 07:57:55;;;;;;;83.40;58.43;;;9.20;81.40;;;;;;5140592;27;20281;-66
2021/03/24 08:01:01;;;;;;;86.10;61.67;;;9.50;80.20;;;;;;5139728;27;20648;-66
2021/03/24 08:04:25;;;;;;;82.33;56.87;;;9.60;79.80;;;;;;5139400;27;20300;-67
2021/03/24 08:07:36;;;;;;;81.63;58.60;;;9.70;79.10;;;;;;5139883;27;20288;-67
2021/03/24 08:10:35;;;;;;;84.40;59.83;;;9.80;79.50;;;;;;5138785;27;20288;-66
2021/03/24 08:13:32;;;;;;;78.07;56.00;;;10.00;78.80;;;;;;5139929;27;20288;-66
2021/03/24 08:16:47;;;;;;;91.80;63.93;;;10.20;78.20;;;;;;5138729;27;20479;-66
2021/03/24 08:19:51;;;;;;;87.10;63.67;;;10.40;77.30;;;;;;5139521;27;20491;-66
2021/03/24 08:22:31;;;;;;;81.87;59.33;;;10.40;76.80;;;;;;5155069;27;20050;-66
2021/03/24 08:25:23;;;;;;;78.83;59.17;;;10.50;77.20;;;;;;5153991;27;20081;-66
2021/03/24 08:28:13;;;;;;;76.13;57.20;;;10.70;76.90;;;;;;5154718;27;20055;-67
2021/03/24 08:30:56;;;;;;;80.07;59.83;;;10.80;75.80;;;;;;5154478;27;20145;-67
2021/03/24 08:34:02;;;;;;;72.10;53.00;;;11.00;75.80;;;;;;5154842;27;20403;-66
2021/03/24 08:36:51;;;;;;;71.47;52.90;;;11.30;75.30;;;;;;5154844;27;20057;-66
2021/03/24 08:39:40;;;;;;;72.27;53.27;;;11.70;73.30;;;;;;5154001;27;20042;-66
2021/03/24 08:42:15;;;;;;;71.23;52.90;;;11.70;71.80;;;;;;5154503;27;20083;-67
2021/03/24 08:44:59;;;;;;;68.00;49.83;;;11.70;72.70;;;;;;5151478;27;20116;-67
2021/03/24 08:47:33;;;;;;;66.07;51.63;;;11.80;72.20;;;;;;5152694;27;20425;-67
2021/03/24 08:50:01;;;;;;;65.37;49.70;;;12.00;71.40;;;;;;5154126;27;20051;-67
2021/03/24 08:52:49;;;;;;;61.77;46.00;;;12.30;72.00;;;;;;5154159;27;20046;-66
2021/03/24 08:55:36;;;;;;;62.87;46.37;;;12.60;69.80;;;;;;5154200;27;20042;-67
2021/03/24 08:58:13;;;;;;;58.07;46.63;;;12.90;68.20;;;;;;5153585;27;20042;-67
2021/03/24 09:00:58;;;;;;;62.30;45.60;;;13.10;66.80;;;;;;5154498;27;20059;-67
2021/03/24 09:03:39;;;;;;;62.50;48.27;;;13.10;66.40;;;;;;5153934;27;20454;-67
2021/03/24 09:06:24;;;;;;;66.07;47.72;;;13.00;66.20;;;;;;5152971;27;20106;-66
2021/03/24 09:09:06;;;;;;;61.70;44.60;;;13.10;65.80;;;;;;5153981;27;20047;-67
2021/03/24 09:11:48;;;;;;;61.70;46.60;;;13.30;65.10;;;;;;5154356;27;20047;-67
2021/03/24 09:14:35;;;;;;;59.50;44.00;;;13.30;63.60;;;;;;5152994;27;20521;-66
2021/03/24 09:17:03;;;;;;;58.17;45.83;;;13.00;64.50;;;;;;5153973;27;20043;-66
2021/03/24 09:20:06;;;;;;;59.60;43.63;;;12.70;64.90;;;;;;5153236;27;20055;-67
2021/03/24 09:23:23;;;;;;;55.27;41.33;;;12.70;64.70;;;;;;5154012;27;20054;-67
2021/03/24 09:25:58;;;;;;;60.93;45.17;;;12.50;64.40;;;;;;5153415;27;20199;-67
2021/03/24 09:28:40;;;;;;;62.33;45.87;;;12.30;65.80;;;;;;5152691;27;20130;-66
2021/03/24 09:31:30;;;;;;;59.05;43.47;;;12.20;66.30;;;;;;5153651;27;20068;-66
2021/03/24 09:34:17;;;;;;;61.37;45.10;;;12.20;66.00;;;;;;5152764;27;20047;-67
2021/03/24 09:36:47;;;;;;;65.97;46.97;;;12.20;66.90;;;;;;5153343;27;20406;-66
2021/03/24 09:39:27;;;;;;;60.30;42.80;;;12.30;67.00;;;;;;5153459;27;20051;-67
2021/03/24 09:42:17;;;;;;;63.20;46.17;;;12.40;66.60;;;;;;5152314;27;20050;-66
2021/03/24 09:45:06;;;;;;;59.03;42.10;;;12.20;66.00;;;;;;5152809;27;20126;-67
2021/03/24 09:47:52;;;;;;;59.23;41.33;;;12.00;66.70;;;;;;5152653;27;20057;-66
2021/03/24 09:50:35;;;;;;;61.43;42.73;;;11.80;67.20;;;;;;5153220;27;20039;-66
2021/03/24 09:53:08;;;;;;;56.60;39.70;;;11.80;67.20;;;;;;5153497;27;20128;-65
2021/03/24 09:56:01;;;;;;;53.93;39.73;;;11.80;68.00;;;;;;5152674;27;20196;-66
2021/03/24 09:58:45;;;;;;;54.07;39.23;;;11.90;67.20;;;;;;5143174;27;20057;-66
2021/03/24 10:01:15;;;;;;;48.70;36.50;;;11.80;67.20;;;;;;5153019;27;20128;-66
2021/03/24 10:03:52;;;;;;;50.67;36.13;;;11.90;67.80;;;;;;5152045;27;20049;-66
2021/03/24 10:06:24;;;;;;;50.03;36.17;;;11.90;67.50;;;;;;5152611;27;20047;-66
2021/03/24 10:09:39;;;;;;;52.40;37.95;;;12.00;67.40;;;;;;5152461;27;20050;-66
2021/03/24 10:12:05;;;;;;;50.03;36.07;;;12.00;66.90;;;;;;5130187;27;20620;-66
2021/03/24 10:14:43;;;;;;;46.23;35.17;;;12.00;67.50;;;;;;5152943;27;20137;-66
2021/03/24 10:17:22;;;;;;;47.33;34.60;;;12.00;67.30;;;;;;5152163;27;20051;-65
2021/03/24 10:19:58;;;;;;;53.47;36.10;;;12.10;67.00;;;;;;5152947;27;20051;-66
2021/03/24 10:22:34;;;;;;;43.10;33.70;;;12.20;66.60;;;;;;5152563;27;20046;-66
2021/03/24 10:25:09;;;;;;;42.60;29.53;;;12.20;66.20;;;;;;5152586;27;20195;-66
2021/03/24 10:27:35;;;;;;;44.23;31.40;;;12.30;65.40;;;;;;5153119;27;20047;-66
2021/03/24 10:30:13;;;;;;;43.07;32.07;;;12.20;65.40;;;;;;5152058;27;20129;-66
2021/03/24 10:32:48;;;;;;;45.53;34.17;;;12.30;65.10;;;;;;5152709;27;20423;-66
2021/03/24 10:35:25;;;;;;;45.50;33.13;;;12.30;64.90;;;;;;5152700;27;20051;-66
2021/03/24 10:37:57;;;;;;;43.97;33.63;;;12.40;65.20;;;;;;5152173;27;20047;-66
2021/03/24 10:40:30;;;;;;;44.65;33.50;;;12.30;64.80;;;;;;5152694;27;20490;-66
2021/03/24 10:43:09;;;;;;;45.10;32.27;;;12.40;64.90;;;;;;5152568;27;20067;-66
2021/03/24 10:45:44;;;;;;;47.67;34.50;;;12.40;64.30;;;;;;5152006;27;20061;-66
2021/03/24 10:48:28;;;;;;;45.10;35.47;;;12.50;64.40;;;;;;5152640;27;20117;-66
2021/03/24 10:51:08;;;;;;;44.97;33.03;;;12.60;64.60;;;;;;5151907;27;20057;-66
2021/03/24 10:53:35;;;;;;;48.53;34.50;;;12.70;64.00;;;;;;5152670;27;20071;-66
2021/03/24 10:56:08;;;;;;;43.30;32.90;;;12.70;63.70;;;;;;5152347;27;20500;-66
2021/03/24 10:58:50;;;;;;;42.47;32.20;;;12.80;63.30;;;;;;5151942;27;20560;-65
2021/03/24 11:01:25;;;;;;;41.17;32.22;;;12.80;62.10;;;;;;5152544;27;20038;-66
2021/03/24 11:03:59;;;;;;;39.40;30.70;;;12.90;63.10;;;;;;5152498;27;20095;-66
2021/03/24 11:06:51;;;;;;;43.60;31.57;;;13.00;62.80;;;;;;5151439;27;20133;-65
2021/03/24 11:09:19;;;;;;;;;;;13.10;61.70;;;;;;5139128;27;20053;-66
2021/03/24 11:12:05;;;;;;;38.77;29.60;;;13.20;61.80;;;;;;5132731;27;19962;-66
2021/03/24 11:14:36;;;;;;;41.70;31.50;;;13.30;62.50;;;;;;5152565;27;20053;-65
2021/03/24 11:17:07;;;;;;;39.80;30.02;;;13.40;62.10;;;;;;5151952;27;20043;-66
2021/03/24 11:19:57;;;;;;;38.63;30.13;;;13.60;61.70;;;;;;5151565;27;20436;-66
2021/03/24 11:22:37;;;;;;;38.23;30.47;;;13.70;60.50;;;;;;5152521;27;20050;-66
2021/03/24 11:25:14;;;;;;;39.87;29.30;;;13.70;60.90;;;;;;5155491;27;20042;-66
2021/03/24 11:27:54;;;;;;;39.23;28.93;;;13.80;61.30;;;;;;5154950;27;20468;-66
2021/03/24 11:30:32;;;;;;;37.37;29.63;;;13.90;60.20;;;;;;5155503;27;20077;-66
2021/03/24 11:33:17;;;;;;;38.47;29.40;;;13.90;59.80;;;;;;5154965;27;20495;-66
2021/03/24 11:36:22;;;;;;;37.47;28.97;;;13.90;60.10;;;;;;5155637;27;20127;-66
2021/03/24 11:39:20;;;;;;;36.83;28.43;;;14.00;58.60;;;;;;5155866;27;20138;-66
2021/03/24 11:41:46;;;;;;;38.07;26.53;;;13.90;59.00;;;;;;5154964;27;20080;-65
2021/03/24 11:44:12;;;;;;;39.27;29.30;;;14.00;60.00;;;;;;5155078;27;20046;-66
2021/03/24 11:46:41;;;;;;;40.07;29.60;;;14.00;60.10;;;;;;5155947;27;20047;-66
2021/03/24 11:49:12;;;;;;;41.03;28.30;;;14.20;60.00;;;;;;5154719;27;20039;-66
2021/03/24 11:51:57;;;;;;;34.28;27.05;;;14.20;59.20;;;;;;5155700;27;20043;-66
2021/03/24 11:54:55;;;;;;;33.03;25.20;;;14.30;58.20;;;;;;5154687;27;20046;-66
2021/03/24 11:57:32;;;;;;;30.27;24.70;;;14.30;58.60;;;;;;5063440;27;20398;-66
2021/03/24 12:00:18;;;;;;;33.87;26.57;;;14.30;58.50;;;;;;5155541;27;20155;-66
2021/03/24 12:03:12;;;;;;;38.90;29.53;;;14.50;57.40;;;;;;5154517;27;20466;-67
2021/03/24 12:05:42;;;;;;;36.13;28.93;;;14.50;57.40;;;;;;5155347;27;20054;-67
2021/03/24 12:08:20;;;;;;;37.88;29.67;;;14.60;58.20;;;;;;5154568;27;20057;-66
2021/03/24 12:10:59;;;;;;;38.50;28.80;;;14.70;57.60;;;;;;5155031;27;20047;-66
2021/03/24 12:13:34;;;;;;;36.20;28.63;;;14.80;56.90;;;;;;5154829;27;20053;-67
2021/03/24 12:16:11;;;;;;;32.77;25.37;;;14.90;57.60;;;;;;5153870;27;20061;-66
2021/03/24 12:18:43;;;;;;;36.57;26.80;;;15.00;56.10;;;;;;5155358;27;20122;-66
2021/03/24 12:21:24;;;;;;;36.03;26.77;;;15.10;55.90;;;;;;5155004;27;20058;-66
2021/03/24 12:23:52;;;;;;;31.45;25.35;;;15.00;55.00;;;;;;5154298;27;20049;-67
2021/03/24 12:26:39;;;;;;;33.73;26.63;;;15.00;55.90;;;;;;5154989;27;20050;-66
2021/03/24 12:29:18;;;;;;;34.37;26.83;;;14.90;54.80;;;;;;5153961;27;20065;-66
2021/03/24 12:32:01;;;;;;;35.60;27.50;;;14.70;55.90;;;;;;5154492;27;20483;-67
2021/03/24 12:34:34;;;;;;;34.57;25.73;;;14.70;55.30;;;;;;5154775;27;20050;-66
2021/03/24 12:37:02;;;;;;;35.77;27.07;;;14.70;56.40;;;;;;5153921;27;20129;-67
2021/03/24 12:39:37;;;;;;;38.07;28.27;;;14.80;57.20;;;;;;5154896;27;20049;-66
2021/03/24 12:42:22;;;;;;;40.57;29.83;;;14.90;56.30;;;;;;5154210;27;20076;-67
2021/03/24 12:44:48;;;;;;;36.67;28.13;;;14.80;56.40;;;;;;5153590;27;20102;-66
2021/03/24 12:47:34;;;;;;;39.63;29.40;;;14.90;56.90;;;;;;5154635;27;20069;-66
2021/03/24 12:50:09;;;;;;;37.73;27.93;;;15.10;56.20;;;;;;5154346;27;20099;-66
2021/03/24 12:52:51;;;;;;;35.93;30.47;;;15.10;56.10;;;;;;5154577;27;20119;-66
2021/03/24 12:55:18;;;;;;;38.27;28.30;;;15.20;56.10;;;;;;5154324;27;20039;-66
2021/03/24 12:58:15;;;;;;;33.87;27.90;;;15.10;56.00;;;;;;5153600;27;20053;-66
2021/03/24 13:00:56;;;;;;;36.27;28.53;;;15.10;55.10;;;;;;5140395;27;20090;-66
2021/03/24 13:04:00;;;;;;;32.97;26.27;;;15.00;55.30;;;;;;5154105;27;20099;-66
2021/03/24 13:07:18;;;;;;;32.20;27.20;;;14.90;55.50;;;;;;5138336;27;20061;-67
2021/03/24 13:09:48;;;;;;;39.50;28.33;;;14.70;56.20;;;;;;5154151;27;20122;-66
2021/03/24 13:12:39;;;;;;;39.60;28.90;;;14.60;56.70;;;;;;5153253;27;20046;-67
2021/03/24 13:15:12;;;;;;;40.27;30.13;;;14.60;56.90;;;;;;5153959;27;20054;-66
2021/03/24 13:18:05;;;;;;;34.17;27.17;;;14.60;57.20;;;;;;5153944;27;20043;-66
2021/03/24 13:20:33;;;;;;;37.87;27.73;;;14.70;57.10;;;;;;5153039;27;20091;-67
2021/03/24 13:23:19;;;;;;;36.20;27.33;;;14.70;57.10;;;;;;5153664;27;20051;-66
2021/03/24 13:25:53;;;;;;;31.63;22.67;;;14.70;56.10;;;;;;5152889;27;20047;-67
2021/03/24 13:28:44;;;;;;;32.23;23.87;;;14.60;56.70;;;;;;5153476;27;20655;-67
2021/03/24 13:31:12;;;;;;;30.90;22.87;;;14.50;56.20;;;;;;5138443;27;20063;-67
2021/03/24 13:34:06;;;;;;;32.23;25.30;;;14.50;56.60;;;;;;5152739;27;20078;-67
2021/03/24 13:36:42;;;;;;;32.80;26.00;;;14.40;56.70;;;;;;5153666;27;20043;-67
2021/03/24 13:39:13;;;;;;;34.77;26.17;;;14.40;57.00;;;;;;5153541;27;20103;-67
2021/03/24 13:41:48;;;;;;;30.05;25.10;;;14.50;57.20;;;;;;5152578;27;20049;-66
2021/03/24 13:44:19;;;;;;;34.67;26.07;;;14.50;56.80;;;;;;5153147;27;20042;-67
2021/03/24 13:46:54;;;;;;;31.58;26.08;;;14.60;56.60;;;;;;5151606;27;20046;-67
2021/03/24 13:49:26;;;;;;;38.87;28.03;;;14.70;56.80;;;;;;5153097;27;20043;-66
2021/03/24 13:52:05;;;;;;;31.83;27.20;;;14.80;56.60;;;;;;5153154;27;20065;-67
2021/03/24 13:55:13;;;;;;;37.63;27.53;;;14.80;56.40;;;;;;5152543;27;20079;-67
2021/03/24 13:57:46;;;;;;;39.43;29.47;;;14.90;55.90;;;;;;5153398;27;20057;-67
2021/03/24 14:00:27;;;;;;;36.40;29.00;;;14.90;56.20;;;;;;5153169;27;20091;-67
2021/03/24 14:02:53;;;;;;;;;;;14.90;56.30;;;;;;5152766;27;20103;-67
2021/03/24 14:05:48;;;;;;;34.90;27.90;;;14.90;56.10;;;;;;5152773;27;19919;-67
2021/03/24 14:08:22;;;;;;;45.20;31.50;;;14.80;56.50;;;;;;5152138;27;20043;-67
2021/03/24 14:11:07;;;;;;;38.10;30.23;;;14.70;56.90;;;;;;5153071;27;20410;-66
2021/03/24 14:13:39;;;;;;;42.03;30.00;;;14.70;56.80;;;;;;5153087;27;20506;-67
2021/03/24 14:16:29;;;;;;;37.60;28.15;;;14.60;57.00;;;;;;5151882;27;20046;-67
2021/03/24 14:19:00;;;;;;;39.07;30.63;;;14.60;57.10;;;;;;5152979;27;20411;-67
2021/03/24 14:21:41;;;;;;;42.22;30.35;;;14.50;57.30;;;;;;5152939;27;20064;-67
2021/03/24 14:24:33;;;;;;;;;;;14.50;57.50;;;;;;5153287;27;20050;-67
2021/03/24 14:27:24;;;;;;;38.00;30.33;;;14.40;57.20;;;;;;5112769;27;20465;-66